Terminal Aerodrome Forecast
Issued by NWS Houston/Galveston, TX

Home | Current Version | Previous Version | Text Only | Print | Product List | Glossary On
Versions: 1 2 3 4 5 6 7 8 9 10 11 12 13 14 15 16 17 18 19 20 21 22 23 24
000
FTUS44 KHGX 242320
TAFCLL
TAF
KCLL 242320Z 2500/2524 16005KT P6SM VCTS FEW070CB
     FM250200 17005KT P6SM SCT250
     FM251300 18003KT P6SM BKN022
     FM251600 16006KT P6SM SCT040
     FM251800 VRB04KT P6SM VCTS BKN045CB PROB30 2518/2524 5SM TSRA
      BR BKN025CB=

USA.gov is the U.S. government's official web portal to all federal, state and local government web resources and services.